Time;durP1;ratioP1;P1;durP2;ratioP2;P2;SDS_P1;SDS_P2;PMS_P1;PMS_P2;Temp;Humidity;BMP_temperature;BMP_pressure;BME280_temperature;BME280_humidity;BME280_pressure;Samples;Min_cycle;Max_cycle;Signal;HPM_P1;HPM_P2
2021/12/17 00:00:19;;;;;;;4.85;3.72;;;8.30;99.90;;;;;;6207368;23;20534;-71
2021/12/17 00:08:39;;;;;;;3.58;3.28;;;8.30;99.90;;;;;;6206710;23;20495;-67
2021/12/17 00:11:11;;;;;;;3.15;2.95;;;8.30;99.90;;;;;;6210238;23;20269;-68
2021/12/17 00:13:45;;;;;;;3.30;3.00;;;8.20;99.90;;;;;;6209401;23;20193;-66
2021/12/17 00:16:22;;;;;;;2.95;2.75;;;8.20;99.90;;;;;;6201893;23;20185;-67
2021/12/17 00:19:06;;;;;;;2.88;2.35;;;8.20;99.90;;;;;;6206153;23;20181;-66
2021/12/17 00:48:21;;;;;;;2.50;2.30;;;7.50;99.90;;;;;;6208403;23;20186;-67
2021/12/17 00:50:07;;;;;;;2.65;2.45;;;7.30;99.90;;;;;;6205170;23;20244;-66
2021/12/17 00:52:39;;;;;;;6.30;3.40;;;7.30;99.90;;;;;;6208960;23;20190;-67
2021/12/17 00:55:11;;;;;;;3.33;3.13;;;7.30;99.90;;;;;;6208890;23;20257;-67
2021/12/17 00:57:45;;;;;;;3.40;3.10;;;7.30;99.90;;;;;;6208684;23;20186;-67
2021/12/17 01:00:19;;;;;;;3.63;2.88;;;7.30;99.90;;;;;;6208523;23;20211;-67
2021/12/17 01:02:51;;;;;;;2.85;2.65;;;7.30;99.90;;;;;;6211236;23;20180;-67
2021/12/17 01:05:25;;;;;;;3.55;3.15;;;7.40;99.90;;;;;;6205365;23;20206;-67
2021/12/17 01:07:57;;;;;;;3.20;3.00;;;7.40;99.90;;;;;;6204877;23;20417;-67
2021/12/17 01:10:34;;;;;;;3.03;2.70;;;7.40;99.90;;;;;;6209181;23;20189;-65
2021/12/17 01:13:11;;;;;;;2.60;2.40;;;7.50;99.90;;;;;;6206268;23;20185;-67
2021/12/17 01:15:55;;;;;;;2.63;2.42;;;7.40;99.90;;;;;;6209086;23;20193;-67
2021/12/17 01:18:48;;;;;;;3.70;3.40;;;7.60;99.90;;;;;;6207881;23;20745;-67
2021/12/17 01:21:36;;;;;;;5.38;3.83;;;7.60;99.90;;;;;;6209310;23;20208;-66
2021/12/17 01:35:23;;;;;;;2.75;2.58;;;7.60;99.90;;;;;;6203567;23;20508;-65
2021/12/17 01:43:33;;;;;;;2.30;2.10;;;7.60;99.90;;;;;;6208311;23;20190;-68
2021/12/17 01:46:35;;;;;;;2.95;2.70;;;7.60;99.90;;;;;;6211941;23;20181;-71
2021/12/17 01:49:23;;;;;;;2.55;2.35;;;7.70;99.90;;;;;;6202235;23;20182;-68
2021/12/17 02:00:34;;;;;;;2.72;2.53;;;7.70;99.90;;;;;;6167152;23;20587;-67
2021/12/17 02:03:08;;;;;;;2.38;2.10;;;7.70;99.90;;;;;;6207429;23;20181;-72
2021/12/17 02:05:43;;;;;;;2.22;2.03;;;7.70;99.90;;;;;;6209474;23;20201;-71
2021/12/17 02:08:14;;;;;;;2.53;2.00;;;7.60;99.90;;;;;;6207101;23;20185;-72
2021/12/17 02:11:35;;;;;;;2.20;2.00;;;7.60;99.90;;;;;;6207641;23;20658;-71
2021/12/17 02:19:46;;;;;;;4.25;2.40;;;7.50;99.90;;;;;;6206693;23;20182;-70
2021/12/17 02:23:09;;;;;;;2.83;2.42;;;7.50;99.90;;;;;;6209099;23;20209;-70
2021/12/17 02:31:25;;;;;;;3.63;3.10;;;7.20;99.90;;;;;;6184592;23;20182;-69
2021/12/17 02:33:59;;;;;;;5.05;4.00;;;7.10;99.90;;;;;;6208081;23;20195;-68
2021/12/17 02:36:33;;;;;;;4.65;4.25;;;7.00;99.90;;;;;;6209243;23;20181;-71
2021/12/17 02:39:29;;;;;;;4.90;4.40;;;7.10;99.90;;;;;;6207420;23;20188;-72
2021/12/17 02:47:35;;;;;;;4.53;4.13;;;7.30;99.90;;;;;;6209325;23;20193;-71
2021/12/17 02:50:07;;;;;;;5.28;4.72;;;7.40;99.90;;;;;;6205715;23;20182;-71
2021/12/17 02:52:40;;;;;;;5.07;4.57;;;7.30;99.90;;;;;;6207257;23;20184;-73
2021/12/17 02:55:21;;;;;;;5.07;4.68;;;7.40;99.90;;;;;;6209378;23;20275;-70
2021/12/17 02:57:53;;;;;;;7.22;6.30;;;7.40;99.90;;;;;;6207036;23;20695;-72
2021/12/17 03:00:24;;;;;;;8.77;8.07;;;7.50;99.90;;;;;;6215828;23;20209;-69
2021/12/17 03:02:57;;;;;;;7.03;5.97;;;7.50;99.90;;;;;;6213621;23;20193;-71
2021/12/17 03:05:29;;;;;;;5.63;5.13;;;7.60;99.90;;;;;;6209001;23;20610;-67
2021/12/17 03:08:07;;;;;;;5.78;5.18;;;7.60;99.90;;;;;;6212930;23;20239;-68
2021/12/17 03:10:40;;;;;;;4.95;4.50;;;7.60;99.90;;;;;;6205313;23;20185;-70
2021/12/17 03:13:11;;;;;;;5.82;5.32;;;7.60;99.90;;;;;;6210599;23;20198;-70
2021/12/17 03:15:49;;;;;;;5.82;5.22;;;7.60;99.90;;;;;;6206812;23;20192;-76
2021/12/17 03:18:53;;;;;;;6.53;5.38;;;7.60;99.90;;;;;;6205549;23;20182;-71
2021/12/17 03:24:18;;;;;;;6.72;5.88;;;7.60;99.90;;;;;;6123202;23;20191;-73
2021/12/17 03:26:59;;;;;;;6.90;6.20;;;7.80;99.90;;;;;;6199209;23;20182;-71
2021/12/17 03:29:30;;;;;;;8.00;7.10;;;7.90;99.90;;;;;;6206100;23;20205;-73
2021/12/17 03:32:01;;;;;;;7.35;6.75;;;7.90;99.90;;;;;;6203862;23;20177;-71
2021/12/17 03:34:32;;;;;;;7.78;6.95;;;7.90;99.90;;;;;;6203232;23;20193;-72
2021/12/17 03:37:03;;;;;;;8.10;7.30;;;7.90;99.90;;;;;;6208707;23;20273;-69
2021/12/17 03:39:37;;;;;;;8.52;7.32;;;7.90;99.90;;;;;;6207005;23;20182;-70
2021/12/17 03:42:11;;;;;;;8.20;7.40;;;7.90;99.90;;;;;;6208764;23;20300;-69
2021/12/17 03:44:42;;;;;;;8.35;7.65;;;7.90;99.90;;;;;;6205532;23;20182;-74
2021/12/17 03:47:13;;;;;;;8.75;7.28;;;7.80;99.90;;;;;;6208995;23;20189;-73
2021/12/17 03:49:45;;;;;;;8.02;7.22;;;7.70;99.90;;;;;;6205776;23;20524;-73
2021/12/17 03:55:42;;;;;;;8.00;7.25;;;7.60;99.90;;;;;;6205508;23;20600;-70
2021/12/17 03:58:16;;;;;;;7.20;6.50;;;7.50;99.90;;;;;;6208698;23;20185;-70
2021/12/17 04:00:47;;;;;;;8.93;7.25;;;7.30;99.90;;;;;;6208828;23;20181;-72
2021/12/17 04:03:18;;;;;;;7.80;7.10;;;7.10;99.90;;;;;;6207138;23;20233;-70
2021/12/17 04:05:49;;;;;;;9.63;7.40;;;6.90;99.90;;;;;;6206438;23;20205;-69
2021/12/17 04:08:20;;;;;;;8.15;7.45;;;6.90;99.90;;;;;;6210242;23;20226;-72
2021/12/17 04:10:54;;;;;;;7.55;6.88;;;6.80;99.90;;;;;;6205007;23;20646;-73
2021/12/17 04:13:32;;;;;;;8.80;8.00;;;6.70;99.90;;;;;;6208520;23;20221;-75
2021/12/17 04:16:06;;;;;;;9.18;8.25;;;6.60;99.90;;;;;;6206883;23;20192;-74
2021/12/17 04:18:40;;;;;;;8.48;7.68;;;6.50;99.90;;;;;;6203433;23;20382;-73
2021/12/17 04:21:13;;;;;;;9.35;8.35;;;6.40;99.90;;;;;;6212868;23;20182;-73
2021/12/17 04:23:45;;;;;;;9.35;8.30;;;6.30;99.90;;;;;;6208319;23;20268;-72
2021/12/17 04:26:17;;;;;;;7.70;7.00;;;6.30;99.90;;;;;;6211201;23;20666;-73
2021/12/17 04:28:52;;;;;;;8.82;7.88;;;6.30;99.90;;;;;;6208244;23;20265;-73
2021/12/17 04:31:27;;;;;;;8.60;7.80;;;6.50;99.90;;;;;;6199018;23;20567;-72
2021/12/17 04:33:58;;;;;;;9.10;8.23;;;6.30;99.90;;;;;;6207129;23;20264;-72
2021/12/17 04:36:32;;;;;;;9.00;8.10;;;6.20;99.90;;;;;;6211074;23;20186;-69
2021/12/17 04:39:06;;;;;;;10.98;8.70;;;6.30;99.90;;;;;;6208430;23;20181;-70
2021/12/17 04:41:47;;;;;;;10.07;9.10;;;6.30;99.90;;;;;;6208590;23;20243;-70
2021/12/17 04:44:25;;;;;;;10.00;8.68;;;6.40;99.90;;;;;;6202618;23;20288;-71
2021/12/17 04:57:34;;;;;;;10.38;9.10;;;6.60;99.90;;;;;;6003390;23;20659;-72
2021/12/17 05:00:11;;;;;;;9.30;8.05;;;6.70;99.90;;;;;;6002201;23;20194;-71
2021/12/17 05:02:46;;;;;;;9.98;8.30;;;6.70;99.90;;;;;;6002631;23;20246;-73
2021/12/17 05:05:19;;;;;;;7.75;7.05;;;6.70;99.90;;;;;;6003322;23;20675;-71
2021/12/17 05:07:54;;;;;;;9.63;8.73;;;6.80;99.90;;;;;;5999743;23;20186;-70
2021/12/17 05:10:32;;;;;;;8.73;7.85;;;6.80;99.90;;;;;;5999822;23;20220;-71
2021/12/17 05:18:50;;;;;;;8.90;8.15;;;6.80;99.90;;;;;;5998476;23;20548;-72
2021/12/17 05:21:23;;;;;;;9.10;8.18;;;6.80;99.90;;;;;;6004789;23;20186;-72
2021/12/17 05:23:54;;;;;;;10.32;8.40;;;6.80;99.90;;;;;;5986811;23;20655;-72
2021/12/17 05:26:27;;;;;;;9.10;8.25;;;6.80;99.90;;;;;;6000549;23;20187;-72
2021/12/17 05:29:02;;;;;;;9.80;8.90;;;6.80;99.90;;;;;;6179950;23;20182;-72
2021/12/17 05:31:35;;;;;;;9.80;8.80;;;6.90;99.90;;;;;;6203910;23;20179;-74
2021/12/17 05:34:06;;;;;;;12.23;9.30;;;6.90;99.90;;;;;;6204518;23;20258;-72
2021/12/17 05:36:37;;;;;;;9.85;9.05;;;6.90;99.90;;;;;;6210430;23;20178;-72
2021/12/17 05:39:08;;;;;;;10.68;8.85;;;6.90;99.90;;;;;;6201740;23;20288;-72
2021/12/17 05:41:39;;;;;;;11.00;9.95;;;7.00;99.90;;;;;;6206798;23;20202;-71
2021/12/17 05:44:15;;;;;;;11.32;9.35;;;7.00;99.90;;;;;;6208983;23;20774;-72
2021/12/17 05:46:50;;;;;;;13.00;10.20;;;7.00;99.90;;;;;;6209214;23;20260;-73
2021/12/17 05:49:30;;;;;;;10.32;9.30;;;7.10;99.90;;;;;;6205366;23;20237;-73
2021/12/17 05:52:03;;;;;;;11.38;10.18;;;7.10;99.90;;;;;;6208038;23;20193;-73
2021/12/17 05:54:34;;;;;;;11.10;10.00;;;7.10;99.90;;;;;;6208765;23;20181;-70
2021/12/17 05:57:06;;;;;;;14.13;10.45;;;7.10;99.90;;;;;;6205350;23;20182;-71
2021/12/17 05:59:37;;;;;;;11.23;10.07;;;7.10;99.90;;;;;;6208978;23;20181;-71
2021/12/17 06:05:01;;;;;;;11.55;9.20;;;7.00;99.90;;;;;;6204786;23;20224;-71
2021/12/17 06:07:34;;;;;;;10.68;9.32;;;6.90;99.90;;;;;;6209493;23;20640;-73
2021/12/17 06:10:08;;;;;;;11.90;10.70;;;6.80;99.90;;;;;;6208949;23;20186;-72
2021/12/17 06:12:41;;;;;;;11.63;10.45;;;6.60;99.90;;;;;;6206449;23;20185;-72
2021/12/17 06:15:14;;;;;;;11.40;10.27;;;6.60;99.90;;;;;;6207216;23;20280;-71
2021/12/17 06:17:47;;;;;;;12.90;11.70;;;6.50;99.90;;;;;;6207380;23;20265;-72
2021/12/17 06:20:19;;;;;;;10.93;9.82;;;6.30;99.90;;;;;;6207085;23;20248;-71
2021/12/17 06:22:50;;;;;;;12.60;10.40;;;6.20;99.90;;;;;;6202915;23;20213;-71
2021/12/17 06:25:21;;;;;;;14.68;11.27;;;6.10;99.90;;;;;;6210173;23;20277;-72
2021/12/17 06:27:55;;;;;;;12.38;11.27;;;5.90;99.90;;;;;;6208971;23;20734;-71
2021/12/17 06:30:26;;;;;;;13.05;11.50;;;5.90;99.90;;;;;;6206716;23;20185;-72
2021/12/17 06:32:59;;;;;;;11.98;10.93;;;5.90;99.90;;;;;;6209353;23;20177;-71
2021/12/17 06:35:30;;;;;;;11.93;10.27;;;6.00;99.90;;;;;;6207953;23;20535;-72
2021/12/17 06:38:04;;;;;;;12.15;11.05;;;5.90;99.90;;;;;;6206088;23;20243;-71
2021/12/17 06:40:35;;;;;;;14.18;12.32;;;5.80;99.90;;;;;;6206413;23;20181;-72
2021/12/17 06:43:06;;;;;;;12.80;10.60;;;5.80;99.90;;;;;;6207450;23;20214;-71
2021/12/17 06:45:53;;;;;;;11.40;9.77;;;5.70;99.90;;;;;;6208491;23;20218;-69
2021/12/17 06:48:29;;;;;;;12.85;10.80;;;5.60;99.90;;;;;;6206567;23;20181;-70
2021/12/17 06:57:23;;;;;;;11.25;10.23;;;5.50;99.90;;;;;;6199230;23;20181;-71
2021/12/17 06:59:51;;;;;;;13.55;12.15;;;5.40;99.90;;;;;;6205893;23;20227;-70
2021/12/17 07:10:48;;;;;;;12.85;11.52;;;5.20;99.90;;;;;;6204298;23;20189;-66
2021/12/17 07:19:47;;;;;;;13.02;10.88;;;5.00;99.90;;;;;;6204817;23;20196;-66
2021/12/17 07:22:03;;;;;;;13.20;11.80;;;5.00;99.90;;;;;;6210005;23;20668;-67
2021/12/17 07:33:02;;;;;;;11.52;10.52;;;4.70;99.90;;;;;;6209293;23;20182;-67
2021/12/17 07:35:52;;;;;;;14.20;11.50;;;4.70;99.90;;;;;;6208223;23;20260;-66
2021/12/17 07:38:43;;;;;;;13.48;12.18;;;4.60;99.90;;;;;;6205951;23;20189;-68
2021/12/17 07:41:14;;;;;;;13.35;11.98;;;4.60;99.90;;;;;;6205552;23;20188;-68
2021/12/17 07:43:53;;;;;;;12.68;11.43;;;4.60;99.90;;;;;;6209722;23;20224;-69
2021/12/17 07:46:24;;;;;;;12.57;11.18;;;4.60;99.90;;;;;;6209282;23;20261;-68
2021/12/17 07:48:54;;;;;;;14.10;11.88;;;4.70;99.90;;;;;;6206459;23;20186;-68
2021/12/17 07:51:26;;;;;;;13.55;12.15;;;4.70;99.90;;;;;;6205476;23;20186;-69
2021/12/17 07:53:59;;;;;;;14.13;12.48;;;4.70;99.90;;;;;;6207139;23;20178;-69
2021/12/17 07:56:37;;;;;;;14.13;12.57;;;4.90;99.90;;;;;;6212810;23;20186;-69
2021/12/17 07:59:09;;;;;;;15.50;13.30;;;5.00;99.90;;;;;;6210309;23;20289;-69
2021/12/17 08:01:41;;;;;;;13.35;12.13;;;5.10;99.90;;;;;;6208406;23;20182;-69
2021/12/17 08:04:12;;;;;;;13.77;12.48;;;5.10;99.90;;;;;;6211027;23;20214;-68
2021/12/17 08:06:44;;;;;;;14.70;13.23;;;5.20;99.90;;;;;;6208240;23;20202;-68
2021/12/17 08:09:16;;;;;;;19.77;16.27;;;5.20;99.90;;;;;;6209635;23;20182;-68
2021/12/17 08:11:55;;;;;;;14.35;12.40;;;5.30;99.90;;;;;;6210091;23;20701;-68
2021/12/17 08:14:27;;;;;;;15.13;13.55;;;5.30;99.90;;;;;;6210066;23;20256;-69
2021/12/17 08:17:10;;;;;;;15.63;13.85;;;5.20;99.90;;;;;;6207552;23;20181;-69
2021/12/17 08:25:17;;;;;;;14.02;12.73;;;5.30;99.90;;;;;;6209279;23;20205;-68
2021/12/17 08:28:02;;;;;;;13.13;11.82;;;5.40;99.90;;;;;;6208384;23;20201;-68
2021/12/17 08:30:38;;;;;;;13.32;12.05;;;5.30;99.90;;;;;;6207945;23;20186;-69
2021/12/17 08:33:09;;;;;;;13.77;12.38;;;5.50;99.90;;;;;;6207726;23;20470;-69
2021/12/17 08:35:40;;;;;;;13.93;12.15;;;5.50;99.90;;;;;;6210106;23;20186;-68
2021/12/17 08:38:12;;;;;;;14.25;12.85;;;5.60;99.90;;;;;;6209827;23;20224;-69
2021/12/17 08:40:45;;;;;;;12.48;11.27;;;5.50;99.90;;;;;;6208382;23;20186;-68
2021/12/17 08:43:15;;;;;;;13.30;12.02;;;5.50;99.90;;;;;;6211511;23;20652;-68
2021/12/17 08:45:46;;;;;;;14.40;12.88;;;5.60;99.90;;;;;;6207757;23;20522;-69
2021/12/17 08:48:17;;;;;;;12.70;11.35;;;5.60;99.90;;;;;;6208380;23;20216;-68
2021/12/17 08:50:48;;;;;;;13.68;11.90;;;5.60;99.90;;;;;;6207084;23;20658;-69
2021/12/17 08:53:19;;;;;;;12.15;10.70;;;5.60;99.90;;;;;;6209363;23;20182;-69
2021/12/17 08:55:52;;;;;;;13.32;12.00;;;5.60;99.90;;;;;;6209507;23;20630;-69
2021/12/17 08:58:22;;;;;;;13.77;12.35;;;5.70;99.90;;;;;;6197338;23;20182;-69
2021/12/17 09:00:56;;;;;;;12.68;11.52;;;5.70;99.90;;;;;;6207098;23;20189;-69
2021/12/17 09:03:27;;;;;;;14.50;13.00;;;5.60;99.90;;;;;;6207581;23;20653;-69
2021/12/17 09:05:58;;;;;;;12.90;11.63;;;5.70;99.90;;;;;;6207084;23;20213;-69
2021/12/17 09:08:29;;;;;;;12.88;11.45;;;5.60;99.90;;;;;;6211140;23;20186;-69
2021/12/17 09:11:01;;;;;;;13.27;12.00;;;5.60;99.90;;;;;;6207265;23;20186;-68
2021/12/17 09:13:32;;;;;;;12.20;10.98;;;5.80;99.90;;;;;;6211594;23;20204;-69
2021/12/17 09:16:06;;;;;;;14.20;12.10;;;5.80;99.90;;;;;;6210216;23;20186;-69
2021/12/17 09:18:37;;;;;;;14.25;12.85;;;5.80;99.90;;;;;;6207916;23;20192;-69
2021/12/17 09:21:08;;;;;;;13.90;12.60;;;5.80;99.90;;;;;;6211450;23;20204;-69
2021/12/17 09:23:39;;;;;;;13.02;11.68;;;5.90;99.90;;;;;;6207816;23;20186;-69
2021/12/17 09:26:11;;;;;;;12.80;11.50;;;5.80;99.90;;;;;;6209431;23;20186;-69
2021/12/17 09:28:43;;;;;;;13.60;11.80;;;5.70;99.90;;;;;;6208786;23;20182;-69
2021/12/17 09:31:13;;;;;;;15.40;11.63;;;5.60;99.90;;;;;;6209414;23;20264;-68
2021/12/17 09:33:46;;;;;;;13.43;12.13;;;5.50;99.90;;;;;;6205855;23;20185;-68
2021/12/17 09:36:17;;;;;;;13.43;12.07;;;5.50;99.90;;;;;;6209427;23;20190;-68
2021/12/17 09:38:49;;;;;;;13.23;10.93;;;5.50;99.90;;;;;;6211254;23;20272;-68
2021/12/17 09:41:23;;;;;;;13.50;11.10;;;5.50;99.90;;;;;;6204996;23;20185;-68
2021/12/17 09:43:55;;;;;;;12.80;11.60;;;5.50;99.90;;;;;;6210572;23;20186;-68
2021/12/17 09:46:25;;;;;;;12.45;11.25;;;5.60;99.90;;;;;;6209605;23;20201;-68
2021/12/17 09:48:57;;;;;;;12.57;10.60;;;5.50;99.90;;;;;;6207594;23;20186;-68
2021/12/17 09:51:28;;;;;;;11.85;10.75;;;5.50;99.90;;;;;;6211275;23;20189;-68
2021/12/17 09:53:59;;;;;;;12.82;11.52;;;5.50;99.90;;;;;;6208374;23;20182;-69
2021/12/17 09:56:32;;;;;;;12.75;11.45;;;5.50;99.90;;;;;;6207358;23;20182;-68
2021/12/17 09:59:03;;;;;;;13.02;11.60;;;5.50;99.90;;;;;;6210787;23;20262;-68
2021/12/17 10:01:39;;;;;;;13.05;11.70;;;5.60;99.90;;;;;;6209462;23;20205;-69
2021/12/17 10:04:18;;;;;;;12.02;10.73;;;5.70;99.90;;;;;;6209101;23;20668;-68
2021/12/17 10:06:50;;;;;;;13.27;11.88;;;5.60;99.90;;;;;;6210846;23;20684;-69
2021/12/17 10:09:33;;;;;;;11.95;10.40;;;5.50;99.90;;;;;;6206668;23;20895;-69
2021/12/17 10:12:08;;;;;;;11.88;10.65;;;5.50;99.90;;;;;;6209231;23;20185;-68
2021/12/17 10:14:41;;;;;;;12.75;11.32;;;5.40;99.90;;;;;;6210759;23;20177;-68
2021/12/17 10:17:13;;;;;;;11.25;10.25;;;5.40;99.90;;;;;;6209112;23;20474;-69
2021/12/17 10:19:45;;;;;;;14.50;11.93;;;5.40;99.90;;;;;;6207044;23;20186;-69
2021/12/17 10:22:18;;;;;;;12.98;11.68;;;5.40;99.90;;;;;;6207246;23;20292;-69
2021/12/17 10:24:59;;;;;;;13.95;12.05;;;5.40;99.90;;;;;;6208308;23;20645;-69
2021/12/17 10:27:34;;;;;;;12.68;11.23;;;5.40;99.90;;;;;;6209070;23;20181;-68
2021/12/17 10:30:13;;;;;;;14.07;10.80;;;5.40;99.90;;;;;;6206539;23;20494;-69
2021/12/17 10:32:47;;;;;;;12.88;11.60;;;5.40;99.90;;;;;;6210878;23;20228;-69
2021/12/17 10:35:19;;;;;;;13.75;12.02;;;5.40;99.90;;;;;;6207483;23;20181;-69
2021/12/17 10:37:55;;;;;;;12.25;10.95;;;5.50;99.90;;;;;;6210879;23;20182;-69
2021/12/17 10:40:28;;;;;;;13.05;11.63;;;5.50;99.90;;;;;;6206414;23;20614;-69
2021/12/17 10:43:06;;;;;;;12.63;11.52;;;5.50;99.90;;;;;;6207202;23;20190;-69
2021/12/17 10:45:40;;;;;;;13.30;11.93;;;5.50;99.90;;;;;;6208535;23;20640;-68
2021/12/17 10:48:23;;;;;;;11.50;10.50;;;5.50;99.90;;;;;;6208576;23;20189;-69
2021/12/17 10:50:56;;;;;;;12.55;11.15;;;5.50;99.90;;;;;;6206860;23;20211;-68
2021/12/17 10:53:27;;;;;;;13.52;11.30;;;5.50;99.90;;;;;;6210509;23;20553;-68
2021/12/17 10:55:59;;;;;;;12.68;10.55;;;5.60;99.90;;;;;;6208709;23;20178;-68
2021/12/17 10:58:32;;;;;;;13.43;11.25;;;5.60;99.90;;;;;;6208242;23;20186;-68
2021/12/17 11:01:06;;;;;;;13.05;10.35;;;5.60;99.90;;;;;;6206621;23;20181;-69
2021/12/17 11:03:42;;;;;;;12.13;10.57;;;5.50;99.90;;;;;;6207040;23;20656;-68
2021/12/17 11:06:13;;;;;;;11.52;10.40;;;5.50;99.90;;;;;;6209635;23;20246;-68
2021/12/17 11:08:48;;;;;;;12.52;10.95;;;5.50;99.90;;;;;;6207514;23;20204;-68
2021/12/17 11:11:19;;;;;;;10.63;9.52;;;5.50;99.90;;;;;;6206309;23;20268;-68
2021/12/17 11:13:58;;;;;;;12.90;10.85;;;5.50;99.90;;;;;;6208134;23;20186;-68
2021/12/17 11:16:30;;;;;;;11.85;10.65;;;5.50;99.90;;;;;;6206438;23;20183;-69
2021/12/17 11:19:01;;;;;;;12.45;11.05;;;5.50;99.90;;;;;;6205321;23;20186;-70
2021/12/17 11:21:33;;;;;;;14.90;12.00;;;5.60;99.90;;;;;;6210935;23;20642;-68
2021/12/17 11:24:05;;;;;;;14.45;12.02;;;5.60;99.90;;;;;;6208245;23;20185;-67
2021/12/17 11:26:36;;;;;;;16.77;13.30;;;5.70;99.90;;;;;;6210943;23;20224;-69
2021/12/17 11:29:09;;;;;;;14.43;12.18;;;5.70;99.90;;;;;;6211603;23;20181;-67
2021/12/17 11:31:40;;;;;;;14.90;12.23;;;5.70;99.90;;;;;;6210171;23;20625;-68
2021/12/17 11:34:12;;;;;;;17.90;13.93;;;5.60;99.90;;;;;;6207118;23;20187;-68
2021/12/17 11:36:42;;;;;;;14.57;11.48;;;5.60;99.90;;;;;;6210487;23;20261;-68
2021/12/17 11:39:23;;;;;;;26.10;12.07;;;5.70;99.90;;;;;;6207169;23;20530;-68
2021/12/17 11:42:05;;;;;;;22.92;12.20;;;5.70;99.90;;;;;;6208294;23;20529;-68
2021/12/17 11:44:42;;;;;;;18.10;11.80;;;5.80;99.90;;;;;;6201311;23;20185;-68
2021/12/17 11:47:14;;;;;;;16.88;10.13;;;5.70;99.90;;;;;;6208641;23;20205;-68
2021/12/17 11:49:49;;;;;;;17.85;10.85;;;5.60;99.90;;;;;;6208641;23;20186;-69
2021/12/17 11:52:40;;;;;;;15.10;10.25;;;5.60;99.90;;;;;;6200293;23;20264;-69
2021/12/17 11:55:34;;;;;;;10.98;7.30;;;5.60;99.90;;;;;;6209723;23;20184;-67
2021/12/17 11:58:10;;;;;;;7.25;6.35;;;5.60;99.90;;;;;;6209794;23;20208;-68
2021/12/17 12:00:53;;;;;;;8.30;6.50;;;5.50;99.90;;;;;;6210272;23;20182;-71
2021/12/17 12:03:25;;;;;;;8.75;5.20;;;5.30;99.90;;;;;;6209701;23;20182;-70
2021/12/17 12:05:59;;;;;;;6.13;4.68;;;5.10;99.90;;;;;;6209932;23;20213;-69
2021/12/17 12:08:34;;;;;;;6.75;5.55;;;5.10;99.90;;;;;;6209778;23;20197;-68
2021/12/17 12:11:08;;;;;;;4.40;4.00;;;5.00;99.90;;;;;;6208323;23;20197;-68
2021/12/17 12:13:41;;;;;;;3.78;3.47;;;5.10;99.90;;;;;;6210301;23;20190;-68
2021/12/17 12:16:17;;;;;;;4.30;3.90;;;5.00;99.90;;;;;;6210453;23;20178;-68
2021/12/17 12:18:51;;;;;;;4.68;4.18;;;4.90;99.90;;;;;;6208039;23;20185;-68
2021/12/17 12:21:23;;;;;;;6.57;4.70;;;4.80;99.90;;;;;;6210067;23;20636;-68
2021/12/17 12:23:59;;;;;;;4.75;3.97;;;4.90;99.90;;;;;;6211394;23;20192;-68
2021/12/17 12:26:38;;;;;;;4.43;4.00;;;4.90;99.90;;;;;;6209508;23;20201;-68
2021/12/17 12:29:21;;;;;;;4.57;3.80;;;4.80;99.90;;;;;;6209096;23;20649;-69
2021/12/17 12:32:01;;;;;;;5.35;4.00;;;4.80;99.90;;;;;;6210150;23;20181;-68
2021/12/17 12:34:43;;;;;;;6.10;4.93;;;4.70;99.90;;;;;;6211117;23;20651;-68
2021/12/17 12:37:29;;;;;;;5.28;4.40;;;4.70;99.90;;;;;;6210021;23;20273;-68
2021/12/17 12:40:21;;;;;;;5.30;3.85;;;4.70;99.90;;;;;;6206739;23;20224;-68
2021/12/17 12:42:55;;;;;;;6.18;4.78;;;4.60;99.90;;;;;;6210104;23;20201;-68
2021/12/17 12:45:31;;;;;;;4.63;4.13;;;4.70;99.90;;;;;;6211376;23;20186;-68
2021/12/17 12:48:03;;;;;;;5.40;4.20;;;4.70;99.90;;;;;;6210092;23;20188;-67
2021/12/17 12:50:35;;;;;;;4.47;4.03;;;4.50;99.90;;;;;;6209619;23;20213;-68
2021/12/17 12:53:11;;;;;;;6.38;4.10;;;4.50;99.90;;;;;;6211371;23;20598;-68
2021/12/17 12:55:45;;;;;;;5.65;4.03;;;4.50;99.90;;;;;;6209309;23;20197;-68
2021/12/17 12:58:18;;;;;;;6.60;4.75;;;4.60;99.90;;;;;;6209288;23;20576;-69
2021/12/17 13:00:54;;;;;;;5.25;3.72;;;4.60;99.90;;;;;;6209501;23;20196;-69
2021/12/17 13:03:29;;;;;;;7.03;4.10;;;4.60;99.90;;;;;;6206144;23;20186;-68
2021/12/17 13:06:01;;;;;;;4.85;4.32;;;4.50;99.90;;;;;;6203151;23;20243;-68
2021/12/17 13:08:33;;;;;;;6.15;4.35;;;4.50;99.90;;;;;;6209444;23;20213;-68
2021/12/17 13:11:06;;;;;;;5.10;4.63;;;4.40;99.90;;;;;;6207912;23;20261;-69
2021/12/17 13:13:50;;;;;;;5.95;4.15;;;4.40;99.90;;;;;;6211572;23;20192;-67
2021/12/17 13:16:34;;;;;;;5.15;4.20;;;4.40;99.90;;;;;;6209991;23;20276;-67
2021/12/17 13:22:13;;;;;;;5.40;4.88;;;4.20;99.90;;;;;;6211356;23;20182;-69
2021/12/17 13:24:44;;;;;;;5.82;5.22;;;4.40;99.90;;;;;;6207412;23;20205;-67
2021/12/17 13:27:14;;;;;;;12.73;6.65;;;4.30;99.90;;;;;;6211354;23;20209;-68
2021/12/17 13:29:45;;;;;;;7.50;6.55;;;4.40;99.90;;;;;;6209005;23;20591;-68
2021/12/17 13:32:17;;;;;;;8.10;6.03;;;4.50;99.90;;;;;;6209667;23;20257;-68
2021/12/17 13:34:52;;;;;;;7.47;6.07;;;4.50;99.90;;;;;;6203296;23;20190;-68
2021/12/17 13:37:25;;;;;;;10.00;6.03;;;4.50;99.90;;;;;;6211521;23;20191;-68
2021/12/17 13:39:57;;;;;;;9.65;6.10;;;4.40;99.90;;;;;;6208554;23;20186;-68
2021/12/17 13:42:30;;;;;;;10.25;6.95;;;4.30;99.90;;;;;;6209548;23;20281;-69
2021/12/17 13:45:01;;;;;;;7.20;5.72;;;4.30;99.90;;;;;;6208341;23;20188;-68
2021/12/17 13:47:33;;;;;;;8.82;6.65;;;4.40;99.90;;;;;;6207444;23;20879;-69
2021/12/17 13:50:10;;;;;;;12.48;7.63;;;4.50;99.90;;;;;;6205400;23;20182;-68
2021/12/17 13:52:55;;;;;;;7.43;5.82;;;4.50;99.90;;;;;;6209397;23;20502;-69
2021/12/17 13:55:29;;;;;;;28.25;7.97;;;4.40;99.90;;;;;;6210653;23;20244;-67
2021/12/17 13:58:01;;;;;;;9.80;7.00;;;4.40;99.90;;;;;;6209301;23;20572;-68
2021/12/17 14:00:36;;;;;;;11.98;8.35;;;4.40;99.90;;;;;;6207433;23;20183;-69
2021/12/17 14:03:11;;;;;;;10.02;7.43;;;4.50;99.90;;;;;;6208588;23;20275;-68
2021/12/17 14:05:50;;;;;;;9.70;6.85;;;4.40;99.90;;;;;;6211423;23;20201;-68
2021/12/17 14:08:22;;;;;;;9.35;6.88;;;4.40;99.90;;;;;;6205985;23;20177;-68
2021/12/17 14:10:54;;;;;;;11.77;7.95;;;4.30;99.90;;;;;;6207473;23;20182;-68
2021/12/17 14:13:27;;;;;;;10.43;7.13;;;4.40;99.90;;;;;;6208535;23;20634;-68
2021/12/17 14:16:04;;;;;;;9.80;7.40;;;4.40;99.90;;;;;;6209286;23;20186;-67
2021/12/17 14:18:36;;;;;;;11.40;7.65;;;4.40;99.90;;;;;;6205356;23;20205;-67
2021/12/17 14:21:08;;;;;;;12.30;8.13;;;4.40;99.90;;;;;;6211441;23;20664;-67
2021/12/17 14:23:42;;;;;;;11.20;8.63;;;4.30;99.90;;;;;;6209849;23;20265;-67
2021/12/17 14:26:13;;;;;;;12.70;7.63;;;4.30;99.90;;;;;;6210842;23;20189;-67
2021/12/17 14:28:43;;;;;;;11.48;8.60;;;4.20;99.90;;;;;;6205898;23;20197;-66
2021/12/17 14:31:16;;;;;;;12.07;8.40;;;4.30;99.90;;;;;;6206705;23;20193;-68
2021/12/17 14:33:50;;;;;;;10.23;7.13;;;4.30;99.90;;;;;;6207658;23;20607;-68
2021/12/17 14:36:29;;;;;;;10.27;7.13;;;4.40;99.90;;;;;;6197181;23;20187;-68
2021/12/17 14:39:07;;;;;;;10.73;7.10;;;4.50;99.90;;;;;;6205407;23;20185;-68
2021/12/17 14:41:48;;;;;;;11.15;8.52;;;4.50;99.90;;;;;;6209299;23;20196;-68
2021/12/17 14:44:33;;;;;;;14.18;7.32;;;4.50;99.90;;;;;;6197777;23;20186;-70
2021/12/17 14:47:18;;;;;;;15.63;8.43;;;4.40;99.90;;;;;;6208630;23;20204;-68
2021/12/17 15:01:28;;;;;;;16.05;8.30;;;4.20;99.90;;;;;;6122009;23;20184;-68
2021/12/17 15:03:59;;;;;;;11.50;8.25;;;4.30;99.90;;;;;;6202972;23;20582;-68
2021/12/17 15:06:31;;;;;;;35.40;9.73;;;4.30;99.90;;;;;;6208652;23;20209;-67
2021/12/17 15:09:03;;;;;;;40.35;11.32;;;4.30;99.90;;;;;;6207291;23;20579;-69
2021/12/17 15:11:41;;;;;;;13.50;8.80;;;4.30;99.90;;;;;;6209097;23;20472;-67
2021/12/17 15:14:11;;;;;;;36.38;10.73;;;4.40;99.90;;;;;;6210783;23;20226;-68
2021/12/17 15:16:42;;;;;;;21.30;10.00;;;4.40;99.90;;;;;;6208400;23;20186;-70
2021/12/17 15:19:13;;;;;;;27.17;9.27;;;4.40;99.90;;;;;;6207161;23;20188;-69
2021/12/17 15:21:44;;;;;;;24.88;9.80;;;4.40;99.90;;;;;;6206487;23;20284;-67
2021/12/17 15:24:36;;;;;;;26.92;11.27;;;4.40;99.90;;;;;;6208123;23;20188;-68
2021/12/17 15:27:12;;;;;;;38.95;11.38;;;4.40;99.90;;;;;;6208616;23;20208;-67
2021/12/17 15:29:43;;;;;;;33.47;10.55;;;4.40;99.90;;;;;;6206741;23;20713;-67
2021/12/17 15:32:14;;;;;;;16.00;8.38;;;4.30;99.90;;;;;;6208542;23;20397;-65
2021/12/17 15:34:45;;;;;;;30.02;10.30;;;4.30;99.90;;;;;;6209347;23;20194;-65
2021/12/17 15:37:16;;;;;;;32.60;10.18;;;4.20;99.90;;;;;;6206552;23;20257;-65
2021/12/17 15:39:48;;;;;;;36.08;11.00;;;4.40;99.90;;;;;;6205754;23;20190;-64
2021/12/17 15:42:19;;;;;;;17.23;8.50;;;4.40;99.90;;;;;;6208702;23;20693;-65
2021/12/17 15:44:50;;;;;;;32.45;10.02;;;4.30;99.90;;;;;;6209759;23;20229;-66
2021/12/17 15:47:21;;;;;;;29.30;8.93;;;4.40;99.90;;;;;;6203409;23;20658;-66
2021/12/17 15:49:52;;;;;;;74.97;15.43;;;4.40;99.90;;;;;;6206182;23;20181;-66
2021/12/17 15:52:23;;;;;;;1401.22;249.77;;;4.40;99.90;;;;;;6207514;23;20189;-65